Monday, April 27, 2015, 3:02 AM EDT
Back to Local

KPTW, Pottstown Limerick Airport

Location: Royersford, PA, United States Lat: 40.233
Local Time: 3:02 AM EDT ( 7:02 GMT) Lon: -75.55
Time Zone: US/Eastern Elev: 291 ft

Show me the last for .
Show Decoded

2015-04-27 01:54 METAR KPTW 270554Z AUTO 32003KT 10SM CLR 06/M02 A2975 RMK AO2 SLP072 T00561017
                 10128 20033 50003 $ =
2015-04-27 00:54 METAR KPTW 270454Z AUTO 00000KT 10SM CLR 04/M01 A2975 RMK AO2 SLP074 T00441006
                 401610028 $ =
2015-04-26 23:54 METAR KPTW 270354Z AUTO 00000KT 10SM CLR 06/M02 A2975 RMK AO2 SLP071 T00561017 $
                 =
2015-04-26 22:54 METAR KPTW 270254Z AUTO 36005KT 10SM CLR 09/M03 A2974 RMK AO2 SLP069 T00891028
                 51012 $ =
2015-04-26 21:54 METAR KPTW 270154Z AUTO 01006KT 10SM CLR 09/M03 A2974 RMK AO2 SLP067 T00941028 $
                 =
2015-04-26 20:54 METAR KPTW 270054Z AUTO 01007KT 10SM CLR 11/M03 A2972 RMK AO2 SLP064 T01111028 $
                 =
2015-04-26 19:54 METAR KPTW 262354Z AUTO 01009KT 10SM BKN085 13/M02 A2971 RMK AO2 SLP057
                 T01281022 10161 20128 53009 $ =
2015-04-26 18:54 METAR KPTW 262254Z AUTO 35004KT 10SM OVC090 14/M02 A2968 RMK AO2 SLP050
                 T01441017 $ =
2015-04-26 17:54 METAR KPTW 262154Z AUTO 02006KT 10SM OVC080 14/M02 A2968 RMK AO2 SLP048
                 T01441022 $ =
2015-04-26 16:54 METAR KPTW 262054Z AUTO 31005KT 10SM OVC080 16/M02 A2968 RMK AO2 SLP048
                 T01561017 56007 $ =
2015-04-26 15:54 METAR KPTW 261954Z AUTO VRB04KT 10SM BKN075 16/M02 A2968 RMK AO2 SLP049
                 T01561017 $ =
2015-04-26 14:54 METAR KPTW 261854Z AUTO 00000KT 10SM 16/M01 A2969 RMK AO2 SLP051 T01561006 $ =
2015-04-26 13:54 METAR KPTW 261754Z AUTO 15/M01 A2970 RMK AO2 SLP055 T01501011 10150 20072 56010
                 PWINO $ =
2015-04-26 12:54 METAR KPTW 261654Z AUTO VRB04KT 10SM CLR 14/M02 A2971 RMK AO2 SLP057 T01391017 =
2015-04-26 11:54 METAR KPTW 261554Z AUTO VRB06KT 10SM SCT060 13/M01 A2972 RMK AO2 SLP062
                 T01331006 =
2015-04-26 10:54 METAR KPTW 261454Z AUTO 08007KT 040V110 10SM CLR 12/M01 A2973 RMK AO2 SLP066
                 T01221011 51007 =
2015-04-26 09:54 METAR KPTW 261354Z AUTO 06007KT 10SM CLR 11/M01 A2973 RMK AO2 SLP064 T01111006 =
2015-04-26 08:54 METAR KPTW 261254Z AUTO 02007KT 10SM CLR 09/M01 A2972 RMK AO2 SLP062 T00941011 =
2015-04-26 07:54 METAR KPTW 261154Z AUTO 03006KT 10SM CLR 08/M02 A2971 RMK AO2 SLP058 T00781017
                 10078 20039 51009 =
2015-04-26 06:54 METAR KPTW 261054Z AUTO 00000KT 10SM CLR 06/M03 A2970 RMK AO2 SLP056 T00561028 =
2015-04-26 05:54 METAR KPTW 260954Z AUTO 32003KT 10SM CLR 05/M03 A2969 RMK AO2 SLP052 T00501028 =
2015-04-26 04:54 METAR KPTW 260854Z AUTO 36005KT 10SM CLR 06/M03 A2968 RMK AO2 SLP049 T00611028
                 55004 =
2015-04-26 03:54 METAR KPTW 260754Z AUTO 02005KT 10SM CLR 06/M03 A2968 RMK AO2 SLP049 T00611033 =

Support USWX by starting your Amazon purchase here.